createdAt,value
2022-12-25T00:00:32.506Z,11.80
2022-12-25T00:05:54.696Z,11.00
2022-12-25T00:11:02.581Z,7.90
2022-12-25T00:13:34.362Z,8.50
2022-12-25T00:16:10.573Z,11.30
2022-12-25T00:18:42.317Z,11.70
2022-12-25T00:21:15.444Z,10.50
2022-12-25T00:23:47.426Z,15.70
2022-12-25T00:26:20.141Z,16.10
2022-12-25T00:28:54.716Z,23.40
2022-12-25T00:31:27.383Z,20.40
2022-12-25T00:33:59.116Z,20.20
2022-12-25T00:39:00.885Z,18.00
2022-12-25T00:41:49.845Z,17.90
2022-12-25T00:44:21.526Z,17.00
2022-12-25T00:49:24.936Z,17.70
2022-12-25T00:51:56.704Z,17.10
2022-12-25T00:54:28.411Z,17.80
2022-12-25T00:57:00.096Z,19.60
2022-12-25T00:59:35.056Z,17.70
2022-12-25T01:02:25.400Z,19.00
2022-12-25T01:04:57.985Z,18.70
2022-12-25T01:07:29.848Z,19.10
2022-12-25T01:10:18.981Z,17.90
2022-12-25T01:12:52.282Z,17.40
2022-12-25T01:15:24.039Z,16.20
2022-12-25T01:17:55.762Z,20.20
2022-12-25T01:20:27.430Z,18.30
2022-12-25T01:25:29.219Z,18.80
2022-12-25T01:30:31.694Z,19.70
2022-12-25T01:33:03.486Z,18.80
2022-12-25T01:38:05.347Z,19.50
2022-12-25T01:43:18.561Z,18.80
2022-12-25T01:45:52.574Z,18.20
2022-12-25T01:48:28.595Z,20.20
2022-12-25T01:51:03.317Z,17.40
2022-12-25T01:53:35.396Z,16.40
2022-12-25T01:56:10.466Z,17.50
2022-12-25T01:58:42.954Z,18.80
2022-12-25T02:01:14.703Z,16.50
2022-12-25T02:03:46.926Z,16.40
2022-12-25T02:06:18.553Z,17.70
2022-12-25T02:11:34.417Z,15.10
2022-12-25T02:14:06.114Z,15.10
2022-12-25T02:16:57.414Z,15.10
2022-12-25T02:19:53.491Z,13.30
2022-12-25T02:22:37.180Z,15.10
2022-12-25T02:25:22.569Z,14.60
2022-12-25T02:28:08.922Z,15.10
2022-12-25T02:30:45.551Z,13.70
2022-12-25T02:33:40.074Z,14.10
2022-12-25T02:36:19.638Z,12.40
2022-12-25T02:39:14.248Z,12.50
2022-12-25T02:41:49.944Z,13.70
2022-12-25T02:44:41.860Z,11.60
2022-12-25T02:47:45.876Z,12.00
2022-12-25T02:50:36.889Z,11.80
2022-12-25T02:53:29.903Z,13.10
2022-12-25T02:56:19.677Z,13.90
2022-12-25T02:59:09.727Z,14.30
2022-12-25T03:02:00.936Z,12.10
2022-12-25T03:04:51.510Z,12.70
2022-12-25T03:07:26.710Z,11.70
2022-12-25T03:10:19.984Z,10.40
2022-12-25T03:12:54.595Z,11.40
2022-12-25T03:15:44.164Z,12.60
2022-12-25T03:18:19.128Z,11.60
2022-12-25T03:21:08.763Z,15.00
2022-12-25T03:24:01.125Z,13.70
2022-12-25T03:26:51.912Z,17.80
2022-12-25T03:29:41.715Z,17.00
2022-12-25T03:32:26.340Z,23.40
2022-12-25T03:35:25.362Z,24.10
2022-12-25T03:38:39.737Z,22.70
2022-12-25T03:41:50.754Z,25.00
2022-12-25T03:44:44.591Z,19.90
2022-12-25T03:47:38.828Z,25.40
2022-12-25T03:50:35.050Z,27.30
2022-12-25T03:53:29.225Z,28.80
2022-12-25T03:56:19.020Z,27.50
2022-12-25T03:59:17.803Z,27.90
2022-12-25T04:02:16.140Z,25.80
2022-12-25T04:05:05.367Z,26.50
2022-12-25T04:07:54.269Z,27.30
2022-12-25T04:10:44.200Z,23.50
2022-12-25T04:13:33.931Z,22.60
2022-12-25T04:16:23.752Z,22.60
2022-12-25T04:19:12.963Z,21.60
2022-12-25T04:22:01.982Z,23.50
2022-12-25T04:24:51.275Z,22.20
2022-12-25T04:27:41.128Z,25.30
2022-12-25T04:30:31.457Z,22.50
2022-12-25T04:33:20.578Z,22.60
2022-12-25T04:36:15.279Z,24.30
2022-12-25T04:38:46.935Z,25.30
2022-12-25T04:41:18.668Z,22.80
2022-12-25T04:46:20.429Z,24.20
2022-12-25T04:51:24.612Z,24.10
2022-12-25T04:53:56.989Z,23.20
2022-12-25T04:56:28.644Z,23.10
2022-12-25T05:01:30.556Z,24.10
2022-12-25T05:04:02.281Z,22.20
2022-12-25T05:09:04.230Z,23.00
2022-12-25T05:11:35.862Z,22.30
2022-12-25T05:16:38.234Z,21.90
2022-12-25T05:19:09.920Z,20.80
2022-12-25T05:21:41.776Z,20.50
2022-12-25T05:26:45.482Z,22.40
2022-12-25T05:29:17.910Z,20.60
2022-12-25T05:34:19.695Z,23.30
2022-12-25T05:39:21.695Z,19.90
2022-12-25T05:41:53.308Z,21.10
2022-12-25T05:46:55.304Z,22.70
2022-12-25T05:49:27.092Z,20.30
2022-12-25T05:51:58.809Z,23.30
2022-12-25T05:57:00.664Z,23.20
2022-12-25T05:59:33.679Z,21.10
2022-12-25T06:02:05.352Z,23.10
2022-12-25T06:07:07.195Z,21.50
2022-12-25T06:12:09.663Z,20.70
2022-12-25T06:14:41.324Z,21.70
2022-12-25T06:19:44.492Z,23.00
2022-12-25T06:22:16.154Z,22.00
2022-12-25T06:24:47.917Z,22.40
2022-12-25T06:29:49.659Z,23.00
2022-12-25T06:34:51.643Z,21.50
2022-12-25T06:37:23.275Z,23.60
2022-12-25T06:42:24.996Z,23.40
2022-12-25T06:47:26.769Z,24.10
2022-12-25T06:52:28.661Z,23.70
2022-12-25T06:55:00.533Z,21.90
2022-12-25T06:57:32.471Z,21.40
2022-12-25T07:00:04.810Z,23.00
2022-12-25T07:02:38.587Z,21.60
2022-12-25T07:05:11.218Z,22.80
2022-12-25T07:07:42.807Z,22.90
2022-12-25T07:10:14.790Z,24.40
2022-12-25T07:12:46.456Z,23.40
2022-12-25T07:17:48.136Z,22.00
2022-12-25T07:22:49.921Z,22.60
2022-12-25T07:27:51.686Z,23.00
2022-12-25T07:32:53.444Z,24.00
2022-12-25T07:37:55.755Z,23.70
2022-12-25T07:40:27.393Z,19.50
2022-12-25T07:45:29.291Z,21.90
2022-12-25T07:48:05.236Z,22.40
2022-12-25T07:50:38.001Z,23.90
2022-12-25T07:53:09.718Z,24.30
2022-12-25T07:55:41.405Z,23.70
2022-12-25T08:00:43.148Z,27.90
2022-12-25T08:05:47.663Z,23.10
2022-12-25T08:08:19.303Z,24.30
2022-12-25T08:13:21.125Z,21.30
2022-12-25T08:18:29.397Z,19.40
2022-12-25T08:21:05.689Z,17.70
2022-12-25T08:23:39.736Z,20.30
2022-12-25T08:26:14.848Z,21.90
2022-12-25T08:28:46.985Z,24.60
2022-12-25T08:31:20.280Z,23.70
2022-12-25T08:33:54.016Z,26.80
2022-12-25T08:36:26.182Z,24.40
2022-12-25T08:39:02.548Z,22.10
2022-12-25T08:41:36.426Z,25.20
2022-12-25T08:44:08.752Z,25.70
2022-12-25T08:46:40.738Z,25.30
2022-12-25T08:49:12.496Z,25.50
2022-12-25T08:54:14.303Z,25.90
2022-12-25T08:59:16.031Z,24.40
2022-12-25T09:04:18.030Z,25.30
2022-12-25T09:06:50.292Z,23.10
2022-12-25T09:09:22.050Z,32.30
2022-12-25T09:14:23.824Z,29.30
2022-12-25T09:19:25.589Z,36.30
2022-12-25T09:24:27.424Z,26.10
2022-12-25T09:26:59.016Z,25.90
2022-12-25T09:32:00.810Z,24.70
2022-12-25T09:34:32.621Z,25.70
2022-12-25T09:37:04.420Z,23.20
2022-12-25T09:39:39.417Z,22.20
2022-12-25T09:42:20.173Z,23.10
2022-12-25T09:44:56.461Z,22.10
2022-12-25T09:47:30.134Z,20.60
2022-12-25T09:50:12.293Z,20.60
2022-12-25T09:52:49.654Z,21.90
2022-12-25T09:55:24.172Z,21.40
2022-12-25T09:57:58.355Z,21.20
2022-12-25T10:00:41.761Z,20.80
2022-12-25T10:03:35.883Z,21.20
2022-12-25T10:06:19.002Z,21.10
2022-12-25T10:09:18.429Z,21.00
2022-12-25T10:11:59.954Z,20.20
2022-12-25T10:17:25.323Z,19.70
2022-12-25T10:20:05.667Z,19.60
2022-12-25T10:22:42.579Z,19.20
2022-12-25T10:25:19.460Z,19.50
2022-12-25T10:27:55.729Z,20.80
2022-12-25T10:30:29.845Z,20.60
2022-12-25T10:33:01.560Z,21.30
2022-12-25T10:35:33.462Z,20.90
2022-12-25T10:38:12.172Z,20.50
2022-12-25T10:41:01.228Z,18.90
2022-12-25T10:43:38.924Z,21.80
2022-12-25T10:46:15.408Z,25.10
2022-12-25T10:48:51.335Z,22.60
2022-12-25T10:51:35.818Z,23.20
2022-12-25T10:54:23.427Z,27.10
2022-12-25T10:57:00.766Z,27.80
2022-12-25T10:59:36.902Z,27.50
2022-12-25T11:02:19.684Z,27.40
2022-12-25T11:04:52.627Z,30.70
2022-12-25T11:07:27.130Z,27.10
2022-12-25T11:10:05.337Z,27.00
2022-12-25T11:12:43.377Z,26.50
2022-12-25T11:15:34.849Z,27.20
2022-12-25T11:18:18.609Z,27.40
2022-12-25T11:20:55.488Z,28.10
2022-12-25T11:23:29.935Z,27.30
2022-12-25T11:26:03.640Z,25.20
2022-12-25T11:28:37.926Z,25.90
2022-12-25T11:31:13.464Z,28.50
2022-12-25T11:33:51.684Z,27.70
2022-12-25T11:36:41.151Z,29.70
2022-12-25T11:39:21.258Z,34.10
2022-12-25T11:41:56.207Z,32.30
2022-12-25T11:44:47.029Z,31.10
2022-12-25T11:47:26.689Z,31.30
2022-12-25T11:50:05.200Z,31.10
2022-12-25T11:52:39.831Z,33.00
2022-12-25T11:55:24.195Z,32.10
2022-12-25T11:58:02.411Z,36.90
2022-12-25T12:00:37.726Z,37.40
2022-12-25T12:03:19.510Z,36.50
2022-12-25T12:05:59.063Z,37.30
2022-12-25T12:08:31.491Z,38.20
2022-12-25T12:11:19.022Z,36.80
2022-12-25T12:14:16.050Z,33.40
2022-12-25T12:16:48.294Z,33.10
2022-12-25T12:19:28.704Z,32.90
2022-12-25T12:22:02.835Z,34.10
2022-12-25T12:24:40.006Z,33.70
2022-12-25T12:27:28.964Z,33.40
2022-12-25T12:30:02.062Z,31.80
2022-12-25T12:32:41.885Z,30.50
2022-12-25T12:35:19.170Z,32.90
2022-12-25T12:37:54.581Z,31.40
2022-12-25T12:40:34.758Z,33.40
2022-12-25T12:43:09.271Z,32.90
2022-12-25T12:45:40.979Z,33.50
2022-12-25T12:48:25.993Z,33.30
2022-12-25T12:51:07.083Z,30.80
2022-12-25T12:53:40.130Z,33.30
2022-12-25T12:56:18.042Z,32.30
2022-12-25T12:58:51.295Z,30.40
2022-12-25T13:01:39.582Z,31.60
2022-12-25T13:04:40.527Z,28.60
2022-12-25T13:07:32.183Z,29.30
2022-12-25T13:10:14.680Z,26.90
2022-12-25T13:12:47.015Z,30.70
2022-12-25T13:15:19.760Z,26.20
2022-12-25T13:17:51.689Z,27.40
2022-12-25T13:20:30.763Z,27.00
2022-12-25T13:23:02.496Z,26.50
2022-12-25T13:25:34.131Z,25.40
2022-12-25T13:30:36.665Z,25.40
2022-12-25T13:33:17.373Z,21.50
2022-12-25T13:35:49.553Z,24.10
2022-12-25T13:38:23.254Z,20.70
2022-12-25T13:41:14.841Z,20.60
2022-12-25T13:43:49.829Z,19.00
2022-12-25T13:46:27.944Z,20.10
2022-12-25T13:49:02.368Z,19.00
2022-12-25T13:51:35.024Z,17.80
2022-12-25T13:54:07.982Z,18.90
2022-12-25T13:56:46.344Z,18.10
2022-12-25T13:59:20.447Z,18.40
2022-12-25T14:01:54.257Z,18.10
2022-12-25T14:04:26.989Z,20.30
2022-12-25T14:07:09.511Z,20.60
2022-12-25T14:09:41.713Z,18.70
2022-12-25T14:12:19.114Z,17.60
2022-12-25T14:14:53.362Z,17.90
2022-12-25T14:17:25.546Z,17.40
2022-12-25T14:20:07.824Z,17.40
2022-12-25T14:22:41.363Z,17.20
2022-12-25T14:25:18.193Z,17.80
2022-12-25T14:27:53.603Z,16.30
2022-12-25T14:30:28.609Z,17.40
2022-12-25T14:33:02.594Z,16.30
2022-12-25T14:35:34.432Z,15.90
2022-12-25T14:38:16.787Z,15.40
2022-12-25T14:40:48.441Z,15.80
2022-12-25T14:45:59.733Z,16.60
2022-12-25T14:48:40.775Z,16.10
2022-12-25T14:51:21.818Z,16.60
2022-12-25T14:53:59.936Z,16.30
2022-12-25T14:56:48.970Z,17.50
2022-12-25T14:59:29.885Z,14.40
2022-12-25T15:02:22.530Z,15.70
2022-12-25T15:04:58.561Z,15.70
2022-12-25T15:13:21.398Z,16.50
2022-12-25T15:16:06.809Z,15.60
2022-12-25T15:18:41.384Z,16.20
2022-12-25T15:21:27.583Z,15.90
2022-12-25T15:24:00.728Z,16.50
2022-12-25T15:26:37.551Z,16.50
2022-12-25T15:29:27.589Z,16.40
2022-12-25T15:32:20.591Z,17.20
2022-12-25T15:34:53.860Z,16.70
2022-12-25T15:37:25.587Z,16.80
2022-12-25T15:39:57.680Z,18.50
2022-12-25T15:42:56.436Z,17.80
2022-12-25T15:45:40.103Z,18.90
2022-12-25T15:48:26.282Z,18.10
2022-12-25T15:51:20.203Z,19.20
2022-12-25T15:54:01.721Z,20.20
2022-12-25T15:56:48.942Z,20.70
2022-12-25T15:59:34.404Z,20.30
2022-12-25T16:02:19.795Z,18.60
2022-12-25T16:05:29.955Z,19.20
2022-12-25T16:08:18.582Z,18.30
2022-12-25T16:11:04.668Z,17.00
2022-12-25T16:13:41.826Z,18.60
2022-12-25T16:16:22.664Z,17.90
2022-12-25T16:18:56.874Z,18.50
2022-12-25T16:23:59.587Z,20.90
2022-12-25T16:26:33.229Z,18.20
2022-12-25T16:29:07.397Z,18.40
2022-12-25T16:31:40.488Z,15.70
2022-12-25T16:34:12.638Z,15.50
2022-12-25T16:36:44.686Z,17.20
2022-12-25T16:39:16.495Z,15.60
2022-12-25T16:44:18.368Z,17.30
2022-12-25T16:49:20.298Z,19.30
2022-12-25T16:54:22.150Z,19.10
2022-12-25T16:59:24.208Z,18.20
2022-12-25T17:01:57.369Z,17.70
2022-12-25T17:04:29.641Z,17.30
2022-12-25T17:07:01.357Z,18.60
2022-12-25T17:12:03.319Z,17.80
2022-12-25T17:17:05.944Z,20.70
2022-12-25T17:19:40.151Z,18.80
2022-12-25T17:22:11.926Z,17.90
2022-12-25T17:24:43.729Z,21.80
2022-12-25T17:27:15.448Z,22.40
2022-12-25T17:29:48.543Z,22.90
2022-12-25T17:32:20.269Z,23.20
2022-12-25T17:37:22.062Z,23.30
2022-12-25T17:39:53.883Z,22.60
2022-12-25T17:44:57.360Z,23.70
2022-12-25T17:47:30.273Z,23.30
2022-12-25T17:50:01.996Z,22.00
2022-12-25T17:52:34.536Z,22.00
2022-12-25T17:55:08.530Z,25.30
2022-12-25T17:57:41.363Z,23.30
2022-12-25T18:00:16.435Z,26.90
2022-12-25T18:02:48.237Z,23.70
2022-12-25T18:05:20.228Z,24.80
2022-12-25T18:07:51.877Z,25.00
2022-12-25T18:12:53.691Z,24.90
2022-12-25T18:17:55.738Z,24.50
2022-12-25T18:20:31.804Z,24.30
2022-12-25T18:23:06.210Z,22.70
2022-12-25T18:28:13.158Z,26.50
2022-12-25T18:30:46.404Z,24.60
2022-12-25T18:33:18.102Z,24.30
2022-12-25T18:35:50.809Z,24.00
2022-12-25T18:38:22.498Z,25.50
2022-12-25T18:43:53.737Z,29.60
2022-12-25T18:48:47.626Z,27.10
2022-12-25T18:51:19.451Z,26.00
2022-12-25T18:53:51.291Z,26.60
2022-12-25T18:56:24.556Z,26.10
2022-12-25T19:01:26.948Z,24.40
2022-12-25T19:04:04.375Z,23.00
2022-12-25T19:06:37.068Z,22.90
2022-12-25T19:09:09.732Z,21.70
2022-12-25T19:11:46.332Z,21.10
2022-12-25T19:14:18.699Z,21.80
2022-12-25T19:19:21.252Z,20.80
2022-12-25T19:21:55.791Z,21.10
2022-12-25T19:24:27.867Z,21.80
2022-12-25T19:26:59.654Z,21.00
2022-12-25T19:29:31.548Z,19.60
2022-12-25T19:32:03.370Z,18.30
2022-12-25T19:34:37.331Z,18.70
2022-12-25T19:37:09.269Z,18.70
2022-12-25T19:39:46.919Z,17.90
2022-12-25T19:42:19.415Z,18.50
2022-12-25T19:44:51.487Z,17.50
2022-12-25T19:47:28.741Z,16.90
2022-12-25T19:50:03.336Z,18.60
2022-12-25T19:52:36.278Z,19.40
2022-12-25T19:55:11.036Z,18.30
2022-12-25T19:57:44.246Z,19.00
2022-12-25T20:00:19.126Z,19.10
2022-12-25T20:02:53.147Z,20.20
2022-12-25T20:05:25.714Z,20.10
2022-12-25T20:07:59.114Z,18.50
2022-12-25T20:10:33.077Z,20.30
2022-12-25T20:13:06.348Z,20.20
2022-12-25T20:15:40.640Z,19.40
2022-12-25T20:18:13.593Z,19.60
2022-12-25T20:20:49.277Z,21.20
2022-12-25T20:23:24.437Z,20.40
2022-12-25T20:25:59.695Z,19.20
2022-12-25T20:28:34.559Z,19.40
2022-12-25T20:31:10.435Z,19.80
2022-12-25T20:33:42.748Z,21.10
2022-12-25T20:36:15.074Z,19.40
2022-12-25T20:38:46.807Z,20.10
2022-12-25T20:41:26.872Z,19.80
2022-12-25T20:44:01.817Z,20.10
2022-12-25T20:46:34.043Z,21.00
2022-12-25T20:49:06.518Z,21.10
2022-12-25T20:51:40.734Z,19.30
2022-12-25T20:54:14.862Z,22.60
2022-12-25T20:56:46.668Z,20.90
2022-12-25T20:59:18.468Z,20.40
2022-12-25T21:01:50.708Z,19.80
2022-12-25T21:04:22.502Z,21.60
2022-12-25T21:09:25.790Z,20.90
2022-12-25T21:11:57.541Z,20.50
2022-12-25T21:14:30.358Z,20.10
2022-12-25T21:17:02.078Z,19.90
2022-12-25T21:19:34.118Z,19.20
2022-12-25T21:22:05.780Z,19.60
2022-12-25T21:27:08.139Z,20.20
2022-12-25T21:29:40.393Z,21.20
2022-12-25T21:32:29.508Z,19.70
2022-12-25T21:35:01.194Z,20.80
2022-12-25T21:40:06.785Z,22.30
2022-12-25T21:42:40.712Z,24.00
2022-12-25T21:48:02.447Z,23.30
2022-12-25T21:50:52.358Z,21.70
2022-12-25T21:53:25.161Z,21.20
2022-12-25T21:56:02.233Z,21.70
2022-12-25T21:58:34.023Z,24.20
2022-12-25T22:01:06.503Z,21.40
2022-12-25T22:03:38.395Z,20.50
2022-12-25T22:06:27.497Z,23.40
2022-12-25T22:08:59.279Z,22.30
2022-12-25T22:11:48.612Z,22.20
2022-12-25T22:14:51.145Z,23.40
2022-12-25T22:17:43.473Z,22.90
2022-12-25T22:20:17.532Z,23.00
2022-12-25T22:22:49.784Z,22.60
2022-12-25T22:25:22.005Z,23.60
2022-12-25T22:27:54.254Z,21.90
2022-12-25T22:30:27.709Z,24.00
2022-12-25T22:32:59.683Z,22.20
2022-12-25T22:35:31.374Z,23.20
2022-12-25T22:40:33.432Z,22.30
2022-12-25T22:43:05.112Z,23.10
2022-12-25T22:48:07.568Z,24.60
2022-12-25T22:50:39.278Z,21.90
2022-12-25T22:55:45.895Z,23.20
2022-12-25T22:58:17.849Z,20.80
2022-12-25T23:00:49.812Z,21.70
2022-12-25T23:05:57.097Z,21.90
2022-12-25T23:08:29.127Z,21.00
2022-12-25T23:11:06.370Z,20.40
2022-12-25T23:14:10.461Z,21.10
2022-12-25T23:16:42.157Z,20.80
2022-12-25T23:19:33.965Z,21.40
2022-12-25T23:22:22.938Z,21.10
2022-12-25T23:25:12.183Z,19.40
2022-12-25T23:27:44.328Z,20.80
2022-12-25T23:30:17.744Z,20.30
2022-12-25T23:32:49.625Z,20.60
2022-12-25T23:35:21.583Z,21.20
2022-12-25T23:37:55.296Z,20.30
2022-12-25T23:40:26.942Z,21.20
2022-12-25T23:45:28.733Z,20.30
2022-12-25T23:50:30.645Z,19.60
2022-12-25T23:53:02.305Z,19.60
2022-12-25T23:55:35.458Z,19.20
2022-12-25T23:58:07.398Z,19.50
